createdAt,value
2022-12-15T00:00:04.756Z,99461.47
2022-12-15T00:02:51.225Z,99465.88
2022-12-15T00:05:36.933Z,99471.47
2022-12-15T00:08:26.261Z,99474.28
2022-12-15T00:11:12.188Z,99480.28
2022-12-15T00:13:57.628Z,99485.50
2022-12-15T00:16:44.740Z,99481.47
2022-12-15T00:19:30.639Z,99494.28
2022-12-15T00:22:16.383Z,99497.72
2022-12-15T00:25:02.202Z,99501.91
2022-12-15T00:27:48.150Z,99505.13
2022-12-15T00:30:33.770Z,99507.09
2022-12-15T00:33:26.636Z,99508.31
2022-12-15T00:36:12.323Z,99504.69
2022-12-15T00:38:44.198Z,99507.50
2022-12-15T00:41:12.988Z,99508.28
2022-12-15T00:43:41.128Z,99513.91
2022-12-15T00:46:27.087Z,99514.50
2022-12-15T00:48:56.747Z,99506.72
2022-12-15T00:51:42.675Z,99508.69
2022-12-15T00:54:28.424Z,99513.91
2022-12-15T00:57:14.344Z,99528.31
2022-12-15T01:00:00.056Z,99539.53
2022-12-15T01:02:46.147Z,99534.34
2022-12-15T01:05:33.163Z,99537.56
2022-12-15T01:08:19.067Z,99547.56
2022-12-15T01:11:04.958Z,99545.59
2022-12-15T01:13:50.681Z,99547.38
2022-12-15T01:16:36.512Z,99551.22
2022-12-15T01:19:22.244Z,99547.59
2022-12-15T01:21:51.753Z,99555.22
2022-12-15T01:24:19.678Z,99549.19
2022-12-15T01:26:48.009Z,99562.81
2022-12-15T01:29:16.015Z,99562.41
2022-12-15T01:31:44.296Z,99555.81
2022-12-15T01:34:12.341Z,99559.59
2022-12-15T01:36:40.573Z,99562.78
2022-12-15T01:39:10.532Z,99567.19
2022-12-15T01:41:37.836Z,99562.41
2022-12-15T01:44:17.349Z,99557.78
2022-12-15T01:46:45.788Z,99558.00
2022-12-15T01:49:16.938Z,99569.59
2022-12-15T01:51:48.731Z,99567.63
2022-12-15T01:54:19.821Z,99566.84
2022-12-15T01:56:51.845Z,99572.06
2022-12-15T01:59:22.300Z,99585.66
2022-12-15T02:01:50.655Z,99582.63
2022-12-15T02:04:19.308Z,99579.66
2022-12-15T02:06:47.528Z,99583.25
2022-12-15T02:09:15.868Z,99584.03
2022-12-15T02:12:08.029Z,99576.41
2022-12-15T02:14:46.735Z,99581.41
2022-12-15T02:17:25.842Z,99582.44
2022-12-15T02:20:42.982Z,99585.03
2022-12-15T02:23:48.783Z,99584.41
2022-12-15T02:26:32.326Z,99574.00
2022-12-15T02:29:13.599Z,99574.59
2022-12-15T02:31:51.055Z,99573.97
2022-12-15T02:34:24.265Z,99578.56
2022-12-15T02:36:56.213Z,99574.75
2022-12-15T02:39:25.045Z,99571.97
2022-12-15T02:41:53.285Z,99586.59
2022-12-15T02:44:24.375Z,99579.00
2022-12-15T02:47:04.752Z,99581.19
2022-12-15T02:49:36.920Z,99588.81
2022-12-15T02:52:12.115Z,99591.81
2022-12-15T02:54:52.408Z,99598.06
2022-12-15T02:57:26.456Z,99590.63
2022-12-15T02:59:57.969Z,99595.66
2022-12-15T03:02:30.461Z,99594.06
2022-12-15T03:04:59.499Z,99601.66
2022-12-15T03:07:28.154Z,99603.47
2022-12-15T03:09:57.200Z,99609.28
2022-12-15T03:12:25.142Z,99605.69
2022-12-15T03:14:53.325Z,99618.91
2022-12-15T03:17:21.252Z,99624.91
2022-12-15T03:19:50.728Z,99624.50
2022-12-15T03:22:18.619Z,99620.09
2022-12-15T03:24:46.813Z,99623.72
2022-12-15T03:27:14.894Z,99623.31
2022-12-15T03:29:43.141Z,99626.91
2022-12-15T03:32:11.160Z,99640.13
2022-12-15T03:34:39.338Z,99639.34
2022-12-15T03:37:09.137Z,99634.13
2022-12-15T03:39:37.378Z,99630.09
2022-12-15T03:42:05.484Z,99629.13
2022-12-15T03:44:33.982Z,99636.09
2022-12-15T03:47:03.756Z,99632.06
2022-12-15T03:49:32.228Z,99636.50
2022-12-15T03:52:00.193Z,99646.72
2022-12-15T03:54:29.813Z,99642.47
2022-12-15T03:56:57.687Z,99650.28
2022-12-15T03:59:25.969Z,99642.47
2022-12-15T04:01:53.925Z,99639.31
2022-12-15T04:04:22.171Z,99648.88
2022-12-15T04:06:50.113Z,99649.28
2022-12-15T04:09:19.291Z,99644.84
2022-12-15T04:11:48.532Z,99644.63
2022-12-15T04:14:16.653Z,99650.00
2022-12-15T04:16:44.578Z,99654.16
2022-12-15T04:19:30.137Z,99652.75
2022-12-15T04:21:58.054Z,99652.75
2022-12-15T04:24:44.334Z,99654.75
2022-12-15T04:27:31.105Z,99655.16
2022-12-15T04:30:17.110Z,99659.34
2022-12-15T04:33:02.759Z,99667.16
2022-12-15T04:35:49.894Z,99664.56
2022-12-15T04:38:35.566Z,99659.53
2022-12-15T04:41:21.383Z,99649.94
2022-12-15T04:44:08.331Z,99647.72
2022-12-15T04:46:54.302Z,99648.72
2022-12-15T04:49:39.953Z,99669.31
2022-12-15T04:52:25.867Z,99677.13
2022-12-15T04:55:11.514Z,99683.16
2022-12-15T04:57:58.591Z,99680.34
2022-12-15T05:00:45.665Z,99685.97
2022-12-15T05:03:31.944Z,99688.59
2022-12-15T05:06:17.923Z,99677.94
2022-12-15T05:09:03.719Z,99676.78
2022-12-15T05:11:49.399Z,99670.81
2022-12-15T05:14:35.326Z,99652.38
2022-12-15T05:17:22.604Z,99664.41
2022-12-15T05:20:08.281Z,99666.81
2022-12-15T05:22:53.926Z,99662.63
2022-12-15T05:25:40.241Z,99665.81
2022-12-15T05:28:25.754Z,99677.66
2022-12-15T05:31:11.660Z,99676.44
2022-12-15T05:33:40.981Z,99680.44
2022-12-15T05:36:09.659Z,99683.22
2022-12-15T05:38:37.526Z,99671.72
2022-12-15T05:41:05.867Z,99685.97
2022-12-15T05:43:34.455Z,99691.56
2022-12-15T05:46:04.699Z,99690.94
2022-12-15T05:48:32.695Z,99660.63
2022-12-15T05:51:05.729Z,99693.31
2022-12-15T05:53:34.338Z,99699.88
2022-12-15T05:56:03.585Z,99702.88
2022-12-15T05:58:31.786Z,99704.63
2022-12-15T06:01:04.858Z,99709.22
2022-12-15T06:03:33.531Z,99715.78
2022-12-15T06:06:02.450Z,99705.28
2022-12-15T06:08:33.812Z,99713.22
2022-12-15T06:11:02.668Z,99727.97
2022-12-15T06:13:32.533Z,99737.91
2022-12-15T06:16:02.641Z,99749.41
2022-12-15T06:18:32.049Z,99740.13
2022-12-15T06:21:01.108Z,99748.03
2022-12-15T06:23:32.965Z,99740.00
2022-12-15T06:26:09.208Z,99733.75
2022-12-15T06:28:37.147Z,99734.31
2022-12-15T06:31:06.926Z,99721.88
2022-12-15T06:33:35.247Z,99711.81
2022-12-15T06:36:04.566Z,99714.59
2022-12-15T06:38:34.286Z,99722.22
2022-12-15T06:41:04.420Z,99717.09
2022-12-15T06:43:33.348Z,99724.75
2022-12-15T06:46:01.848Z,99727.59
2022-12-15T06:48:30.198Z,99736.41
2022-12-15T06:51:03.568Z,99745.13
2022-12-15T06:53:32.308Z,99754.59
2022-12-15T06:56:03.532Z,99756.44
2022-12-15T06:58:31.502Z,99759.22
2022-12-15T07:01:00.381Z,99754.81
2022-12-15T07:03:28.655Z,99753.00
2022-12-15T07:06:04.266Z,99760.28
2022-12-15T07:08:41.190Z,99750.59
2022-12-15T07:11:12.855Z,99741.41
2022-12-15T07:13:40.956Z,99732.41
2022-12-15T07:16:10.914Z,99754.03
2022-12-15T07:18:40.544Z,99759.72
2022-12-15T07:21:10.373Z,99754.00
2022-12-15T07:23:55.790Z,99760.50
2022-12-15T07:26:26.768Z,99753.28
2022-12-15T07:28:54.804Z,99753.72
2022-12-15T07:31:23.455Z,99749.78
2022-12-15T07:33:52.255Z,99754.63
2022-12-15T07:36:21.481Z,99749.78
2022-12-15T07:38:50.442Z,99749.34
2022-12-15T07:41:19.803Z,99744.78
2022-12-15T07:43:49.181Z,99741.31
2022-12-15T07:46:18.538Z,99744.97
2022-12-15T07:48:50.822Z,99741.50
2022-12-15T07:51:21.012Z,99749.63
2022-12-15T07:53:50.743Z,99746.06
2022-12-15T07:56:20.073Z,99743.72
2022-12-15T07:58:49.492Z,99750.53
2022-12-15T08:01:18.344Z,99750.16
2022-12-15T08:03:46.685Z,99754.66
2022-12-15T08:06:16.031Z,99758.47
2022-12-15T08:08:50.351Z,99753.94
2022-12-15T08:11:20.722Z,99772.25
2022-12-15T08:14:02.733Z,99762.16
2022-12-15T08:16:34.342Z,99774.84
2022-12-15T08:19:02.726Z,99775.22
2022-12-15T08:21:31.761Z,99780.06
2022-12-15T08:24:00.671Z,99791.84
2022-12-15T08:26:30.972Z,99799.09
2022-12-15T08:29:40.295Z,99811.38
2022-12-15T08:31:53.499Z,99823.34
2022-12-15T08:34:22.155Z,99841.22
2022-12-15T08:36:50.441Z,99838.63
2022-12-15T08:39:18.485Z,99828.88
2022-12-15T08:41:46.827Z,99834.16
2022-12-15T08:44:16.988Z,99839.47
2022-12-15T08:46:45.708Z,99832.31
2022-12-15T08:49:18.072Z,99827.22
2022-12-15T08:51:50.223Z,99826.03
2022-12-15T08:54:19.440Z,99837.22
2022-12-15T08:56:48.004Z,99836.41
2022-12-15T08:59:17.267Z,99837.03
2022-12-15T09:01:45.530Z,99838.03
2022-12-15T09:04:13.698Z,99848.84
2022-12-15T09:06:42.071Z,99861.31
2022-12-15T09:09:13.086Z,99869.00
2022-12-15T09:11:41.411Z,99871.50
2022-12-15T09:14:09.305Z,99866.22
2022-12-15T09:16:38.876Z,99861.66
2022-12-15T09:19:08.140Z,99876.06
2022-12-15T09:21:36.557Z,99868.44
2022-12-15T09:24:05.017Z,99878.38
2022-12-15T09:26:34.692Z,99858.50
2022-12-15T09:29:03.077Z,99849.19
2022-12-15T09:31:32.996Z,99846.53
2022-12-15T09:34:02.477Z,99836.22
2022-12-15T09:36:32.620Z,99843.53
2022-12-15T09:39:02.807Z,99855.97
2022-12-15T09:41:33.014Z,99852.03
2022-12-15T09:44:03.943Z,99861.41
2022-12-15T09:46:41.061Z,99854.88
2022-12-15T09:49:17.677Z,99868.13
2022-12-15T09:51:49.671Z,99862.91
2022-12-15T09:54:17.875Z,99856.09
2022-12-15T09:56:49.803Z,99844.09
2022-12-15T09:59:27.488Z,99835.59
2022-12-15T10:02:04.833Z,99831.72
2022-12-15T10:04:38.968Z,99824.47
2022-12-15T10:07:09.839Z,99838.53
2022-12-15T10:09:38.246Z,99844.09
2022-12-15T10:12:08.481Z,99836.09
2022-12-15T10:14:40.414Z,99834.91
2022-12-15T10:17:18.034Z,99818.34
2022-12-15T10:19:52.165Z,99812.38
2022-12-15T10:22:23.978Z,99807.75
2022-12-15T10:28:05.125Z,99813.44
